createdAt,value
2022-12-31T00:01:30.746Z,75.83
2022-12-31T00:03:59.687Z,76.01
2022-12-31T00:06:33.175Z,75.91
2022-12-31T00:09:04.841Z,75.78
2022-12-31T00:11:35.565Z,75.79
2022-12-31T00:14:04.766Z,75.76
2022-12-31T00:16:37.115Z,75.55
2022-12-31T00:19:07.380Z,75.61
2022-12-31T00:21:39.011Z,75.60
2022-12-31T00:24:09.551Z,75.22
2022-12-31T00:26:39.265Z,75.38
2022-12-31T00:29:08.530Z,75.28
2022-12-31T00:31:39.768Z,75.38
2022-12-31T00:34:09.211Z,75.42
2022-12-31T00:36:40.346Z,75.18
2022-12-31T00:39:11.879Z,75.23
2022-12-31T00:41:43.312Z,75.36
2022-12-31T00:44:13.982Z,75.40
2022-12-31T00:49:12.708Z,75.12
2022-12-31T00:51:43.375Z,75.01
2022-12-31T00:54:12.483Z,75.15
2022-12-31T00:56:41.789Z,75.11
2022-12-31T00:59:10.850Z,75.13
2022-12-31T01:01:41.223Z,75.04
2022-12-31T01:04:12.455Z,74.80
2022-12-31T01:06:43.738Z,74.93
2022-12-31T01:09:14.092Z,74.81
2022-12-31T01:11:43.545Z,74.78
2022-12-31T01:14:14.492Z,74.77
2022-12-31T01:16:45.749Z,74.74
2022-12-31T01:19:17.823Z,74.60
2022-12-31T01:21:50.299Z,74.76
2022-12-31T01:24:20.062Z,74.77
2022-12-31T01:26:49.242Z,74.49
2022-12-31T01:29:18.197Z,74.79
2022-12-31T01:31:47.694Z,74.85
2022-12-31T01:34:16.645Z,74.89
2022-12-31T01:36:48.130Z,74.69
2022-12-31T01:39:17.268Z,74.48
2022-12-31T01:41:48.458Z,74.68
2022-12-31T01:44:49.311Z,74.37
2022-12-31T01:47:23.051Z,74.62
2022-12-31T01:49:55.812Z,74.73
2022-12-31T01:52:31.901Z,74.53
2022-12-31T01:55:07.201Z,74.41
2022-12-31T01:57:38.732Z,74.28
2022-12-31T02:00:10.035Z,74.43
2022-12-31T02:02:39.556Z,74.30
2022-12-31T02:05:17.642Z,74.23
2022-12-31T02:07:49.967Z,74.14
2022-12-31T02:10:19.315Z,74.19
2022-12-31T02:12:49.273Z,74.65
2022-12-31T02:15:18.786Z,74.11
2022-12-31T02:17:57.359Z,74.24
2022-12-31T02:21:18.161Z,74.04
2022-12-31T02:24:34.048Z,74.21
2022-12-31T02:27:08.156Z,74.52
2022-12-31T02:30:08.838Z,74.78
2022-12-31T02:32:49.612Z,74.83
2022-12-31T02:35:26.028Z,74.48
2022-12-31T02:38:00.322Z,74.67
2022-12-31T02:40:30.034Z,74.58
2022-12-31T02:42:59.051Z,74.59
2022-12-31T02:45:35.540Z,74.64
2022-12-31T02:48:17.240Z,74.49
2022-12-31T02:50:56.514Z,74.40
2022-12-31T02:53:53.294Z,74.67
2022-12-31T02:56:28.743Z,74.43
2022-12-31T02:59:23.743Z,74.49
2022-12-31T03:02:16.850Z,74.74
2022-12-31T03:04:50.197Z,74.60
2022-12-31T03:07:22.785Z,74.51
2022-12-31T03:09:52.046Z,74.39
2022-12-31T03:12:40.776Z,74.62
2022-12-31T03:15:20.280Z,74.69
2022-12-31T03:17:58.368Z,74.72
2022-12-31T03:20:48.515Z,74.58
2022-12-31T03:23:22.902Z,74.89
2022-12-31T03:25:51.312Z,74.89
2022-12-31T03:28:23.524Z,75.02
2022-12-31T03:31:21.249Z,75.13
2022-12-31T03:33:52.027Z,75.33
2022-12-31T03:36:21.126Z,75.91
2022-12-31T03:38:52.833Z,75.59
2022-12-31T03:41:22.208Z,75.58
2022-12-31T03:43:51.458Z,76.03
2022-12-31T03:46:20.521Z,75.84
2022-12-31T03:48:51.253Z,76.39
2022-12-31T03:51:20.428Z,75.97
2022-12-31T03:53:49.701Z,76.72
2022-12-31T03:56:18.823Z,76.53
2022-12-31T03:58:48.440Z,76.74
2022-12-31T04:01:17.660Z,76.88
2022-12-31T04:03:46.966Z,77.00
2022-12-31T04:06:17.546Z,77.73
2022-12-31T04:08:46.939Z,78.06
2022-12-31T04:11:20.685Z,77.58
2022-12-31T04:13:50.596Z,77.89
2022-12-31T04:16:19.709Z,78.19
2022-12-31T04:18:49.087Z,78.55
2022-12-31T04:21:19.583Z,78.51
2022-12-31T04:23:48.829Z,78.84
2022-12-31T04:26:17.877Z,78.50
2022-12-31T04:28:47.136Z,78.52
2022-12-31T04:31:16.175Z,78.48
2022-12-31T04:33:45.449Z,78.68
2022-12-31T04:36:14.757Z,78.24
2022-12-31T04:38:46.288Z,78.29
2022-12-31T04:41:18.550Z,78.10
2022-12-31T04:43:49.729Z,78.39
2022-12-31T04:46:21.079Z,78.43
2022-12-31T04:48:50.667Z,78.51
2022-12-31T04:51:19.659Z,78.17
2022-12-31T04:53:50.785Z,78.43
2022-12-31T04:56:21.804Z,78.26
2022-12-31T04:58:51.875Z,78.73
2022-12-31T05:01:21.210Z,78.26
2022-12-31T05:03:51.343Z,78.68
2022-12-31T05:06:23.399Z,78.39
2022-12-31T05:08:54.307Z,78.55
2022-12-31T05:11:23.402Z,78.46
2022-12-31T05:13:52.731Z,78.53
2022-12-31T05:16:21.722Z,78.21
2022-12-31T05:18:51.046Z,78.53
2022-12-31T05:21:22.202Z,78.70
2022-12-31T05:23:53.160Z,78.77
2022-12-31T05:26:22.215Z,78.75
2022-12-31T05:28:51.509Z,78.74
2022-12-31T05:31:20.669Z,78.55
2022-12-31T05:33:50.276Z,78.78
2022-12-31T05:36:19.337Z,78.87
2022-12-31T05:38:48.743Z,78.75
2022-12-31T05:41:19.120Z,78.66
2022-12-31T05:43:48.518Z,78.66
2022-12-31T05:46:17.529Z,78.84
2022-12-31T05:48:46.971Z,78.88
2022-12-31T05:51:16.097Z,78.66
2022-12-31T05:53:45.499Z,78.68
2022-12-31T05:56:14.614Z,78.58
2022-12-31T05:58:45.270Z,79.05
2022-12-31T06:01:14.419Z,78.86
2022-12-31T06:03:43.771Z,78.95
2022-12-31T06:06:12.987Z,78.80
2022-12-31T06:08:42.365Z,78.58
2022-12-31T06:11:11.440Z,78.75
2022-12-31T06:13:40.685Z,78.88
2022-12-31T06:16:12.159Z,78.61
2022-12-31T06:18:41.615Z,78.49
2022-12-31T06:21:10.619Z,78.51
2022-12-31T06:23:42.297Z,78.83
2022-12-31T06:26:11.434Z,78.68
2022-12-31T06:28:40.739Z,78.85
2022-12-31T06:31:14.024Z,78.70
2022-12-31T06:33:43.982Z,78.71
2022-12-31T06:36:16.382Z,78.57
2022-12-31T06:38:46.878Z,78.59
2022-12-31T06:41:18.318Z,78.72
2022-12-31T06:43:47.903Z,78.76
2022-12-31T06:46:19.566Z,78.94
2022-12-31T06:48:49.009Z,78.52
2022-12-31T06:51:20.291Z,78.64
2022-12-31T06:53:51.605Z,78.30
2022-12-31T06:56:26.492Z,78.82
2022-12-31T06:59:00.938Z,78.67
2022-12-31T07:01:36.327Z,78.86
2022-12-31T07:04:21.642Z,78.94
2022-12-31T07:06:56.187Z,78.75
2022-12-31T07:09:34.253Z,78.69
2022-12-31T07:12:10.833Z,78.60
2022-12-31T07:14:47.494Z,78.68
2022-12-31T07:17:33.036Z,78.77
2022-12-31T07:20:07.999Z,78.95
2022-12-31T07:22:37.869Z,78.88
2022-12-31T07:25:08.701Z,78.68
2022-12-31T07:27:54.152Z,78.64
2022-12-31T07:30:29.961Z,78.95
2022-12-31T07:33:26.856Z,78.99
2022-12-31T07:36:07.286Z,78.95
2022-12-31T07:38:46.589Z,78.72
2022-12-31T07:41:19.172Z,78.68
2022-12-31T07:44:01.463Z,78.74
2022-12-31T07:46:37.205Z,79.07
2022-12-31T07:49:11.372Z,78.73
2022-12-31T07:51:41.634Z,78.93
2022-12-31T07:54:14.224Z,78.72
2022-12-31T07:56:44.601Z,78.87
2022-12-31T07:59:29.021Z,79.08
2022-12-31T08:02:08.572Z,79.07
2022-12-31T08:04:50.605Z,78.80
2022-12-31T08:07:31.199Z,78.80
2022-12-31T08:10:12.525Z,78.61
2022-12-31T08:12:46.970Z,78.73
2022-12-31T08:15:18.368Z,78.45
2022-12-31T08:17:48.335Z,78.56
2022-12-31T08:20:19.181Z,78.73
2022-12-31T08:23:12.311Z,79.01
2022-12-31T08:26:01.401Z,78.82
2022-12-31T08:29:00.156Z,78.92
2022-12-31T08:31:38.105Z,78.87
2022-12-31T08:34:17.264Z,78.78
2022-12-31T08:36:56.403Z,78.74
2022-12-31T08:39:47.966Z,78.95
2022-12-31T08:42:26.344Z,78.75
2022-12-31T08:45:12.810Z,78.79
2022-12-31T08:47:55.053Z,78.74
2022-12-31T08:50:28.066Z,79.00
2022-12-31T08:52:59.529Z,78.74
2022-12-31T08:55:29.562Z,79.07
2022-12-31T08:58:13.697Z,78.83
2022-12-31T09:00:44.006Z,78.75
2022-12-31T09:03:31.708Z,79.06
2022-12-31T09:06:09.549Z,79.23
2022-12-31T09:08:48.643Z,79.15
2022-12-31T09:11:24.327Z,79.31
2022-12-31T09:14:18.730Z,79.12
2022-12-31T09:16:57.635Z,79.18
2022-12-31T09:19:26.774Z,79.26
2022-12-31T09:21:56.663Z,79.39
2022-12-31T09:24:27.389Z,79.16
2022-12-31T09:27:06.515Z,79.18
2022-12-31T09:29:46.601Z,79.24
2022-12-31T09:32:27.016Z,79.20
2022-12-31T09:35:03.965Z,79.14
2022-12-31T09:37:45.173Z,79.10
2022-12-31T09:40:44.873Z,79.18
2022-12-31T09:43:46.224Z,78.91
2022-12-31T09:46:54.627Z,79.16
2022-12-31T09:50:06.988Z,79.14
2022-12-31T09:52:51.473Z,79.05
2022-12-31T09:55:35.549Z,78.97
2022-12-31T09:58:21.704Z,78.92
2022-12-31T10:00:57.580Z,79.11
2022-12-31T10:03:41.331Z,79.11
2022-12-31T10:06:34.229Z,78.97
2022-12-31T10:09:38.312Z,79.03
2022-12-31T10:12:34.966Z,78.91
2022-12-31T10:15:31.523Z,78.99
2022-12-31T10:18:12.879Z,79.14
2022-12-31T10:20:56.021Z,79.12
2022-12-31T10:23:53.534Z,78.97
2022-12-31T10:26:32.915Z,79.08
2022-12-31T10:29:10.837Z,79.21
2022-12-31T10:31:48.113Z,79.48
2022-12-31T10:34:27.072Z,79.42
2022-12-31T10:36:59.188Z,79.22
2022-12-31T10:39:46.521Z,79.63
2022-12-31T10:42:45.089Z,79.63
2022-12-31T10:45:48.041Z,79.61
2022-12-31T10:48:45.089Z,79.56
2022-12-31T10:52:00.263Z,79.38
2022-12-31T10:54:58.960Z,79.37
2022-12-31T10:58:04.705Z,80.01
2022-12-31T11:00:41.746Z,80.25
2022-12-31T11:03:53.152Z,80.45
2022-12-31T11:07:00.232Z,80.30
2022-12-31T11:10:10.943Z,80.68
2022-12-31T11:13:15.531Z,80.54
2022-12-31T11:16:14.777Z,80.63
2022-12-31T11:18:53.434Z,80.79
2022-12-31T11:21:41.574Z,80.77
2022-12-31T11:24:25.709Z,80.64
2022-12-31T11:27:08.796Z,80.64
2022-12-31T11:30:00.991Z,80.49
2022-12-31T11:32:50.965Z,80.71
2022-12-31T11:35:33.235Z,80.70
2022-12-31T11:38:16.318Z,80.69
2022-12-31T11:41:01.058Z,80.82
2022-12-31T11:43:37.370Z,81.13
2022-12-31T11:46:29.529Z,80.86
2022-12-31T11:49:13.825Z,80.99
2022-12-31T11:52:21.779Z,81.47
2022-12-31T11:55:24.534Z,81.25
2022-12-31T11:57:55.853Z,81.61
2022-12-31T12:00:28.154Z,81.29
2022-12-31T12:03:01.080Z,81.42
2022-12-31T12:05:31.842Z,81.60
2022-12-31T12:08:02.348Z,81.21
2022-12-31T12:10:39.811Z,81.36
2022-12-31T12:13:20.702Z,81.44
2022-12-31T12:15:52.119Z,81.41
2022-12-31T12:18:31.540Z,81.46
2022-12-31T12:21:07.968Z,81.29
2022-12-31T12:23:37.542Z,81.56
2022-12-31T12:26:08.021Z,81.40
2022-12-31T12:28:48.015Z,81.61
2022-12-31T12:31:21.942Z,81.29
2022-12-31T12:33:53.005Z,81.61
2022-12-31T12:36:23.023Z,81.46
2022-12-31T12:39:03.544Z,81.30
2022-12-31T12:41:33.380Z,81.35
2022-12-31T12:44:09.495Z,81.37
2022-12-31T12:46:48.305Z,81.46
2022-12-31T12:49:25.568Z,81.69
2022-12-31T12:52:23.280Z,81.71
2022-12-31T12:55:06.218Z,81.70
2022-12-31T12:57:47.381Z,81.68
2022-12-31T13:00:25.061Z,81.94
2022-12-31T13:03:16.538Z,81.92
2022-12-31T13:05:57.867Z,82.13
2022-12-31T13:08:44.888Z,81.95
2022-12-31T13:11:28.766Z,81.75
2022-12-31T13:14:07.394Z,82.09
2022-12-31T13:16:46.508Z,82.50
2022-12-31T13:19:24.690Z,82.42
2022-12-31T13:22:02.647Z,82.38
2022-12-31T13:24:47.643Z,82.44
2022-12-31T13:27:23.990Z,82.15
2022-12-31T13:29:56.269Z,82.31
2022-12-31T13:32:40.744Z,82.16
2022-12-31T13:35:25.806Z,82.86
2022-12-31T13:38:05.427Z,82.64
2022-12-31T13:40:46.991Z,82.33
2022-12-31T13:43:22.137Z,82.78
2022-12-31T13:46:02.918Z,82.55
2022-12-31T13:48:38.543Z,83.01
2022-12-31T13:51:15.064Z,82.92
2022-12-31T13:53:50.361Z,83.02
2022-12-31T13:56:24.367Z,82.94
2022-12-31T13:58:59.055Z,82.90
2022-12-31T14:01:34.610Z,83.15
2022-12-31T14:04:12.988Z,83.24
2022-12-31T14:06:47.263Z,83.02
2022-12-31T14:09:21.627Z,83.46
2022-12-31T14:12:04.003Z,83.06
2022-12-31T14:14:44.278Z,83.06
2022-12-31T14:17:21.941Z,83.27
2022-12-31T14:20:03.811Z,83.14
2022-12-31T14:22:44.412Z,83.73
2022-12-31T14:25:22.313Z,83.85
2022-12-31T14:27:53.497Z,83.67
2022-12-31T14:30:25.461Z,83.63
2022-12-31T14:33:09.343Z,83.63
2022-12-31T14:36:10.330Z,83.42
2022-12-31T14:38:53.429Z,83.80
2022-12-31T14:41:35.587Z,83.77
2022-12-31T14:44:29.124Z,84.08
2022-12-31T14:47:13.793Z,84.05
2022-12-31T14:49:51.864Z,83.81
2022-12-31T14:52:30.650Z,83.80
2022-12-31T14:55:04.645Z,83.79
2022-12-31T14:58:09.733Z,83.82
2022-12-31T15:00:32.347Z,83.42
2022-12-31T15:03:05.699Z,83.19
2022-12-31T15:05:37.333Z,83.50
2022-12-31T15:08:32.220Z,83.23
2022-12-31T15:11:23.844Z,82.95
2022-12-31T15:14:09.771Z,83.24
2022-12-31T15:16:50.528Z,83.13
2022-12-31T15:19:50.789Z,83.16
2022-12-31T15:22:36.740Z,83.38
2022-12-31T15:25:23.072Z,83.11
2022-12-31T15:27:53.311Z,83.37
2022-12-31T15:30:43.093Z,83.28
2022-12-31T15:33:23.864Z,83.24
2022-12-31T15:35:55.181Z,83.23
2022-12-31T15:38:37.425Z,83.59
2022-12-31T15:41:29.086Z,83.68
2022-12-31T15:44:03.348Z,83.72
2022-12-31T15:46:38.664Z,83.51
2022-12-31T15:49:15.894Z,83.14
2022-12-31T15:51:49.161Z,83.36
2022-12-31T15:54:25.477Z,83.55
2022-12-31T15:56:56.409Z,83.30
2022-12-31T15:59:27.986Z,83.39
2022-12-31T16:01:58.568Z,83.56
2022-12-31T16:04:29.908Z,83.29
2022-12-31T16:07:02.064Z,83.57
2022-12-31T16:09:34.190Z,83.52
2022-12-31T16:12:11.439Z,83.43
2022-12-31T16:14:46.027Z,83.41
2022-12-31T16:17:29.645Z,83.65
2022-12-31T16:19:59.580Z,83.77
2022-12-31T16:22:31.119Z,83.65
2022-12-31T16:25:29.647Z,83.54
2022-12-31T16:27:53.557Z,83.87
2022-12-31T16:30:26.547Z,83.60
2022-12-31T16:33:00.079Z,83.63
2022-12-31T16:35:31.757Z,83.52
2022-12-31T16:38:12.048Z,83.70
2022-12-31T16:40:42.106Z,83.78
2022-12-31T16:43:30.530Z,83.57
2022-12-31T16:46:09.857Z,83.65
2022-12-31T16:48:40.541Z,83.57
2022-12-31T16:51:18.144Z,83.52
2022-12-31T16:53:48.226Z,83.42
2022-12-31T16:56:26.118Z,83.56
2022-12-31T16:59:01.911Z,83.24
2022-12-31T17:01:35.428Z,83.03
2022-12-31T17:04:10.436Z,82.77
2022-12-31T17:06:39.973Z,82.57
2022-12-31T17:09:15.245Z,82.65
2022-12-31T17:11:48.256Z,82.35
2022-12-31T17:14:20.277Z,82.44
2022-12-31T17:17:02.792Z,82.21
2022-12-31T17:19:42.059Z,82.28
2022-12-31T17:22:17.362Z,82.31
2022-12-31T17:24:50.124Z,82.11
2022-12-31T17:27:20.055Z,82.21
2022-12-31T17:29:52.252Z,82.11
2022-12-31T17:32:31.273Z,81.98
2022-12-31T17:35:00.864Z,82.01
2022-12-31T17:37:31.012Z,81.65
2022-12-31T17:40:25.015Z,81.68
2022-12-31T17:42:51.716Z,81.78
2022-12-31T17:45:23.471Z,81.69
2022-12-31T17:47:55.740Z,81.64
2022-12-31T17:50:27.733Z,81.48
2022-12-31T17:53:00.705Z,81.16
2022-12-31T17:55:30.528Z,81.15
2022-12-31T17:58:03.672Z,81.07
2022-12-31T18:00:35.199Z,80.93
2022-12-31T18:03:04.751Z,80.97
2022-12-31T18:05:33.783Z,81.03
2022-12-31T18:08:02.961Z,80.70
2022-12-31T18:10:36.859Z,80.71
2022-12-31T18:13:07.001Z,80.97
2022-12-31T18:15:37.741Z,80.52
2022-12-31T18:18:24.307Z,80.14
2022-12-31T18:20:58.059Z,80.21
2022-12-31T18:23:29.580Z,80.03
2022-12-31T18:25:58.927Z,80.06
2022-12-31T18:28:28.293Z,80.08
2022-12-31T18:30:58.932Z,79.98
2022-12-31T18:33:28.641Z,80.04
2022-12-31T18:36:08.798Z,79.95
2022-12-31T18:38:39.307Z,79.99
2022-12-31T18:41:13.777Z,79.93
2022-12-31T18:43:43.140Z,80.22
2022-12-31T18:46:15.875Z,80.38
2022-12-31T18:48:45.619Z,80.23
2022-12-31T18:51:16.746Z,80.28
2022-12-31T18:53:46.605Z,80.07
2022-12-31T18:56:17.642Z,80.49
2022-12-31T18:58:47.917Z,80.39
2022-12-31T19:01:30.066Z,80.61
2022-12-31T19:04:00.924Z,80.25
2022-12-31T19:06:32.053Z,80.37
2022-12-31T19:09:01.419Z,80.53
2022-12-31T19:11:32.961Z,80.24
2022-12-31T19:14:02.756Z,80.42
2022-12-31T19:16:32.912Z,80.64
2022-12-31T19:19:08.321Z,81.09
2022-12-31T19:21:37.925Z,81.23
2022-12-31T19:24:12.857Z,81.20
2022-12-31T19:26:43.716Z,81.21
2022-12-31T19:29:17.860Z,81.25
2022-12-31T19:31:48.786Z,81.47
2022-12-31T19:34:18.265Z,81.28
2022-12-31T19:36:47.835Z,81.30
2022-12-31T19:39:19.389Z,81.34
2022-12-31T19:41:54.803Z,81.19
2022-12-31T19:44:28.060Z,81.35
2022-12-31T19:46:58.567Z,81.46
2022-12-31T19:49:28.027Z,81.61
2022-12-31T19:51:57.014Z,81.56
2022-12-31T19:54:26.348Z,81.79
2022-12-31T19:56:55.749Z,81.74
2022-12-31T19:59:25.127Z,81.95
2022-12-31T20:01:54.733Z,82.18
2022-12-31T20:04:25.543Z,82.54
2022-12-31T20:06:55.111Z,82.52
2022-12-31T20:09:24.353Z,82.33
2022-12-31T20:11:53.430Z,82.29
2022-12-31T20:14:22.692Z,82.62
2022-12-31T20:16:52.680Z,82.71
2022-12-31T20:19:22.106Z,82.74
2022-12-31T20:21:53.307Z,82.74
2022-12-31T20:24:22.701Z,82.57
2022-12-31T20:26:51.673Z,82.50
2022-12-31T20:29:21.004Z,82.64
2022-12-31T20:31:49.976Z,82.55
2022-12-31T20:34:19.369Z,82.30
2022-12-31T20:36:48.555Z,82.73
2022-12-31T20:39:19.229Z,82.96
2022-12-31T20:41:49.356Z,82.85
2022-12-31T20:44:18.698Z,82.76
2022-12-31T20:46:47.721Z,83.12
2022-12-31T20:49:23.708Z,83.28
2022-12-31T20:52:06.029Z,83.31
2022-12-31T20:54:37.308Z,83.35
2022-12-31T20:57:06.480Z,83.08
2022-12-31T20:59:35.731Z,82.98
2022-12-31T21:02:20.890Z,82.76
2022-12-31T21:04:50.797Z,82.79
2022-12-31T21:07:20.034Z,82.93
2022-12-31T21:09:50.808Z,82.83
2022-12-31T21:12:37.287Z,82.58
2022-12-31T21:15:07.689Z,82.48
2022-12-31T21:17:38.748Z,82.33
2022-12-31T21:20:08.659Z,82.48
2022-12-31T21:22:38.249Z,82.39
2022-12-31T21:25:12.041Z,82.24
2022-12-31T21:27:41.153Z,82.24
2022-12-31T21:30:20.390Z,82.23
2022-12-31T21:32:49.754Z,82.13
2022-12-31T21:38:10.664Z,82.25
2022-12-31T21:40:41.536Z,82.14
2022-12-31T21:43:10.510Z,82.37
2022-12-31T21:45:40.094Z,82.27
2022-12-31T21:48:21.581Z,82.31
2022-12-31T21:50:52.891Z,83.05
2022-12-31T21:53:27.894Z,83.18
2022-12-31T21:56:14.559Z,83.59
2022-12-31T21:58:45.919Z,83.09
2022-12-31T22:01:37.354Z,83.79
2022-12-31T22:04:28.183Z,83.50
2022-12-31T22:06:57.520Z,83.68
2022-12-31T22:09:26.523Z,83.62
2022-12-31T22:11:57.292Z,83.31
2022-12-31T22:14:26.378Z,83.39
2022-12-31T22:16:55.658Z,82.86
2022-12-31T22:19:24.857Z,82.74
2022-12-31T22:21:54.137Z,82.88
2022-12-31T22:24:23.266Z,82.74
2022-12-31T22:26:55.615Z,82.68
2022-12-31T22:29:26.292Z,82.78
2022-12-31T22:32:01.054Z,82.59
2022-12-31T22:34:30.312Z,82.57
2022-12-31T22:37:08.960Z,82.65
2022-12-31T22:39:48.816Z,82.49
2022-12-31T22:42:18.109Z,82.75
2022-12-31T22:44:48.601Z,82.77
2022-12-31T22:47:18.111Z,82.74
2022-12-31T22:49:47.191Z,82.40
2022-12-31T22:52:16.451Z,82.50
2022-12-31T22:54:45.559Z,82.43
2022-12-31T22:57:19.973Z,82.58
2022-12-31T22:59:51.405Z,82.37
2022-12-31T23:02:20.765Z,82.49
2022-12-31T23:04:49.808Z,82.34
2022-12-31T23:07:19.390Z,82.43
2022-12-31T23:10:05.960Z,82.39
2022-12-31T23:12:35.609Z,82.38
2022-12-31T23:15:24.012Z,82.40
2022-12-31T23:18:10.686Z,82.45
2022-12-31T23:20:57.566Z,82.33
2022-12-31T23:23:26.913Z,82.36
2022-12-31T23:26:02.732Z,82.75
2022-12-31T23:28:32.141Z,82.76
2022-12-31T23:31:07.787Z,82.65
2022-12-31T23:33:37.238Z,82.71
2022-12-31T23:36:08.075Z,82.83
2022-12-31T23:38:37.469Z,82.75
2022-12-31T23:41:13.655Z,82.58
2022-12-31T23:43:42.986Z,82.34
2022-12-31T23:46:14.038Z,82.56
2022-12-31T23:48:43.641Z,82.38
2022-12-31T23:51:12.610Z,82.51
2022-12-31T23:53:42.020Z,82.50
2022-12-31T23:56:19.281Z,82.41
2022-12-31T23:58:55.685Z,82.42
